Time;durP1;ratioP1;P1;durP2;ratioP2;P2;SDS_P1;SDS_P2;PMS_P1;PMS_P2;Temp;Humidity;BMP_temperature;BMP_pressure;BME280_temperature;BME280_humidity;BME280_pressure;Samples;Min_cycle;Max_cycle;Signal;HPM_P1;HPM_P2
2024/04/18 00:09:28;;;;;;;0.00;0.00;;;1.30;99.90;;;;;;22705067;26;20061;-38
2024/04/18 00:19:30;;;;;;;0.03;0.00;;;0.90;99.90;;;;;;22706174;26;20034;-38
2024/04/18 00:29:31;;;;;;;0.52;0.00;;;0.70;99.90;;;;;;22702251;26;20076;-38
2024/04/18 00:39:43;;;;;;;0.08;0.00;;;0.60;99.90;;;;;;22656240;26;20479;-38
2024/04/18 00:49:45;;;;;;;0.20;0.00;;;0.60;99.90;;;;;;22649224;26;20160;-38
2024/04/18 00:59:47;;;;;;;0.00;0.00;;;0.50;99.90;;;;;;22701621;26;20707;-38
2024/04/18 01:09:55;;;;;;;0.03;0.00;;;0.50;99.90;;;;;;22701050;26;20030;-38
2024/04/18 01:19:57;;;;;;;0.10;0.00;;;0.60;99.90;;;;;;22700800;26;20119;-38
2024/04/18 01:29:59;;;;;;;0.00;0.00;;;1.00;99.90;;;;;;22699897;26;20099;-38
2024/04/18 01:40:13;;;;;;;0.05;0.00;;;1.40;99.90;;;;;;22629101;26;20034;-38
2024/04/18 01:50:14;;;;;;;3.20;0.00;;;1.60;99.90;;;;;;22660565;26;20084;-39
2024/04/18 02:00:16;;;;;;;1.27;0.00;;;1.80;99.30;;;;;;22681115;26;20561;-38
2024/04/18 02:10:18;;;;;;;0.00;0.00;;;1.80;98.00;;;;;;22678301;26;20034;-37
2024/04/18 02:20:35;;;;;;;0.00;0.00;;;2.00;97.70;;;;;;22712789;26;20026;-38
2024/04/18 02:30:54;;;;;;;0.00;0.00;;;2.00;97.20;;;;;;22679767;26;20046;-37
2024/04/18 02:41:16;;;;;;;0.00;0.00;;;1.90;97.20;;;;;;22571884;26;20538;-38
2024/04/18 02:51:24;;;;;;;0.20;0.03;;;1.70;97.00;;;;;;22584825;26;20026;-38
2024/04/18 03:01:47;;;;;;;0.00;0.00;;;1.50;96.70;;;;;;22640689;26;20073;-38
2024/04/18 03:11:49;;;;;;;0.00;0.00;;;1.50;96.60;;;;;;22539591;26;20089;-37
2024/04/18 03:21:51;;;;;;;0.00;0.00;;;1.50;96.10;;;;;;22567480;26;20480;-38
2024/04/18 03:31:52;;;;;;;0.10;0.00;;;1.50;95.80;;;;;;22555807;26;20104;-38
2024/04/18 03:42:14;;;;;;;0.10;0.00;;;1.40;95.70;;;;;;22670748;26;20026;-38
2024/04/18 03:52:31;;;;;;;0.00;0.00;;;1.40;96.20;;;;;;22490997;26;20066;-38
2024/04/18 04:02:41;;;;;;;0.00;0.00;;;1.30;96.00;;;;;;22247001;26;20004;-37
2024/04/18 04:12:43;;;;;;;0.00;0.00;;;1.50;95.90;;;;;;22190440;26;20011;-38
2024/04/18 04:22:45;;;;;;;0.10;0.00;;;1.60;95.60;;;;;;22262427;26;20037;-37
2024/04/18 04:32:55;;;;;;;;;;;1.70;95.60;;;;;;22356761;26;20094;-37
2024/04/18 04:43:09;;;;;;;0.00;0.00;;;1.80;95.90;;;;;;22379276;26;20035;-38
2024/04/18 04:53:10;;;;;;;0.75;0.00;;;2.00;94.60;;;;;;22308366;26;20031;-38
2024/04/18 05:03:32;;;;;;;0.00;0.00;;;2.30;94.10;;;;;;22403003;26;20066;-38
2024/04/18 05:13:56;;;;;;;0.00;0.00;;;2.50;93.60;;;;;;22337149;26;20028;-38
2024/04/18 05:24:18;;;;;;;0.05;0.00;;;2.50;94.30;;;;;;22283872;26;20047;-38
2024/04/18 05:34:20;;;;;;;0.00;0.00;;;2.20;97.30;;;;;;22432247;26;20112;-38
2024/04/18 05:44:24;;;;;;;0.00;0.00;;;2.20;95.90;;;;;;22693628;26;20096;-38
2024/04/18 05:54:25;;;;;;;0.10;0.00;;;2.20;96.20;;;;;;22566142;26;20104;-38
2024/04/18 06:04:40;;;;;;;0.20;0.00;;;2.10;97.20;;;;;;22552448;26;20034;-38
2024/04/18 06:15:00;;;;;;;0.20;0.00;;;1.90;98.20;;;;;;22555915;26;20077;-37
2024/04/18 06:25:02;;;;;;;0.00;0.00;;;1.50;99.90;;;;;;22639600;26;20131;-38
2024/04/18 06:35:05;;;;;;;0.10;0.00;;;1.30;99.90;;;;;;22678669;26;20037;-37
2024/04/18 06:45:07;;;;;;;0.35;0.10;;;0.60;99.90;;;;;;22622920;26;20096;-38
2024/04/18 06:55:09;;;;;;;0.00;0.00;;;0.40;99.90;;;;;;22578674;26;20034;-38
2024/04/18 07:05:22;;;;;;;0.10;0.00;;;0.30;99.90;;;;;;22563186;26;20072;-37
2024/04/18 07:15:24;;;;;;;0.20;0.10;;;0.20;99.90;;;;;;22553036;26;20117;-38
2024/04/18 07:25:44;;;;;;;0.10;0.10;;;0.30;99.90;;;;;;22565643;26;20093;-37
2024/04/18 07:36:06;;;;;;;0.20;0.10;;;0.70;99.90;;;;;;22577583;26;20495;-38
2024/04/18 07:46:13;;;;;;;0.13;0.00;;;1.30;99.90;;;;;;22547596;26;20086;-38
2024/04/18 07:56:16;;;;;;;0.45;0.00;;;2.00;99.90;;;;;;22559051;26;20066;-38
2024/04/18 08:06:18;;;;;;;0.82;0.10;;;2.80;99.90;;;;;;22558672;26;20077;-39
2024/04/18 08:16:21;;;;;;;0.00;0.00;;;3.80;99.90;;;;;;22553709;26;20363;-38
2024/04/18 08:26:23;;;;;;;0.10;0.00;;;4.40;99.90;;;;;;22653660;26;20030;-40
2024/04/18 08:36:25;;;;;;;0.00;0.00;;;4.90;99.90;;;;;;22553477;26;20031;-39
2024/04/18 08:46:26;;;;;;;0.30;0.10;;;4.90;97.90;;;;;;22546782;26;20042;-39
2024/04/18 08:56:32;;;;;;;0.10;0.00;;;5.10;98.30;;;;;;22553297;26;20046;-39
2024/04/18 09:06:34;;;;;;;0.30;0.10;;;5.40;99.90;;;;;;22576979;26;20091;-40
2024/04/18 09:16:38;;;;;;;1.30;0.00;;;6.10;99.90;;;;;;22668275;26;20018;-40
2024/04/18 09:26:40;;;;;;;1.02;0.00;;;6.80;98.90;;;;;;22699306;26;20022;-40
2024/04/18 09:36:42;;;;;;;0.20;0.17;;;6.90;97.80;;;;;;22577918;26;20027;-39
2024/04/18 09:46:48;;;;;;;0.22;0.10;;;6.70;97.80;;;;;;22544318;26;20023;-38
2024/04/18 09:56:54;;;;;;;0.20;0.00;;;6.50;97.20;;;;;;22552102;26;20026;-38
2024/04/18 10:06:58;;;;;;;0.38;0.13;;;6.80;94.30;;;;;;22448499;26;20126;-39
2024/04/18 10:17:00;;;;;;;0.10;0.00;;;7.20;96.70;;;;;;22711147;26;20475;-39
2024/04/18 10:27:08;;;;;;;0.70;0.20;;;7.40;95.00;;;;;;22710818;26;20022;-39
2024/04/18 10:37:11;;;;;;;0.80;0.15;;;7.10;98.40;;;;;;22664283;26;20031;-39
2024/04/18 10:47:13;;;;;;;1.60;0.30;;;6.40;99.60;;;;;;22694530;26;20488;-39
2024/04/18 10:57:17;;;;;;;0.45;0.10;;;6.90;99.90;;;;;;22557148;26;20027;-40
2024/04/18 11:07:19;;;;;;;0.40;0.10;;;7.60;98.80;;;;;;22562298;26;20028;-39
2024/04/18 11:17:21;;;;;;;0.30;0.20;;;7.80;98.30;;;;;;22553490;26;20352;-39
2024/04/18 11:27:26;;;;;;;1.88;0.20;;;7.80;98.70;;;;;;22577668;26;20101;-39
2024/04/18 11:37:39;;;;;;;0.43;0.20;;;8.30;99.90;;;;;;22501092;26;20034;-39
2024/04/18 11:47:41;;;;;;;0.77;0.30;;;8.20;99.90;;;;;;22537939;26;20138;-39
2024/04/18 11:57:43;;;;;;;0.88;0.40;;;8.40;99.90;;;;;;22561746;26;20145;-39
2024/04/18 12:08:06;;;;;;;2.33;0.50;;;8.10;99.90;;;;;;22552594;26;20030;-38
2024/04/18 12:18:07;;;;;;;1.85;0.50;;;7.90;99.90;;;;;;22553684;26;20441;-39
2024/04/18 12:28:24;;;;;;;0.98;0.50;;;7.70;99.40;;;;;;22569804;26;20060;-38
2024/04/18 12:38:29;;;;;;;0.55;0.40;;;7.70;99.90;;;;;;22557655;26;20023;-38
2024/04/18 12:48:34;;;;;;;0.88;0.30;;;8.10;99.90;;;;;;22547711;26;20550;-38
2024/04/18 12:58:36;;;;;;;0.80;0.30;;;8.60;99.20;;;;;;22555639;26;20058;-39
2024/04/18 13:08:43;;;;;;;0.50;0.30;;;8.90;98.70;;;;;;22611771;26;20520;-39
2024/04/18 13:18:46;;;;;;;2.65;0.25;;;8.60;99.90;;;;;;22631379;26;20035;-38
2024/04/18 13:29:07;;;;;;;1.08;0.40;;;8.50;99.30;;;;;;22543481;26;20031;-39
2024/04/18 13:39:19;;;;;;;2.13;0.20;;;8.80;99.90;;;;;;22562386;26;20368;-39
2024/04/18 13:49:38;;;;;;;0.40;0.20;;;8.70;98.10;;;;;;22561989;26;20360;-38
2024/04/18 13:59:41;;;;;;;0.50;0.20;;;8.40;98.20;;;;;;22642497;26;20046;-38
2024/04/18 14:10:01;;;;;;;0.43;0.20;;;8.30;99.70;;;;;;22642593;26;20022;-39
2024/04/18 14:20:23;;;;;;;1.45;0.40;;;8.40;99.60;;;;;;22711592;26;20030;-39
2024/04/18 14:30:25;;;;;;;0.95;0.30;;;8.30;99.60;;;;;;22569797;26;20035;-38
2024/04/18 14:40:46;;;;;;;0.60;0.37;;;8.00;99.90;;;;;;22536664;26;20096;-38
2024/04/18 14:50:51;;;;;;;0.50;0.20;;;7.90;99.80;;;;;;22559219;26;20050;-38
2024/04/18 15:01:13;;;;;;;0.28;0.20;;;7.90;99.90;;;;;;22559662;26;20077;-38
2024/04/18 15:11:16;;;;;;;0.50;0.17;;;7.60;99.90;;;;;;22595323;26;20160;-38
2024/04/18 15:21:36;;;;;;;0.20;0.10;;;7.30;99.90;;;;;;22555291;26;20042;-38
2024/04/18 15:31:46;;;;;;;0.73;0.20;;;7.20;99.90;;;;;;22554002;26;20030;-38
2024/04/18 15:42:11;;;;;;;2.05;0.20;;;7.10;96.70;;;;;;22533057;26;20076;-38
2024/04/18 15:52:21;;;;;;;0.73;0.30;;;6.30;98.30;;;;;;22596075;26;20061;-38
2024/04/18 16:02:23;;;;;;;1.45;0.20;;;6.40;97.40;;;;;;22706882;26;20026;-38
2024/04/18 16:12:45;;;;;;;0.35;0.20;;;6.20;97.30;;;;;;22611538;26;20586;-38
2024/04/18 16:22:47;;;;;;;0.20;0.20;;;5.90;97.80;;;;;;22559315;26;20096;-38
2024/04/18 16:33:10;;;;;;;1.80;0.40;;;5.60;96.90;;;;;;22550431;26;20031;-38
2024/04/18 16:43:13;;;;;;;0.68;0.30;;;5.70;96.80;;;;;;22561619;26;20070;-38
2024/04/18 16:53:44;;;;;;;1.20;0.30;;;5.30;95.40;;;;;;21849284;27;20006;-38
2024/04/18 17:03:49;;;;;;;0.60;0.10;;;5.10;95.40;;;;;;21815465;27;19998;-37
2024/04/18 17:14:07;;;;;;;0.40;0.20;;;4.90;96.60;;;;;;21903277;27;20016;-37
2024/04/18 17:24:09;;;;;;;0.10;0.10;;;4.70;96.50;;;;;;22096677;26;20012;-38
2024/04/18 17:34:31;;;;;;;0.57;0.30;;;4.40;96.50;;;;;;22715078;26;20430;-38
2024/04/18 17:44:38;;;;;;;0.30;0.10;;;4.30;96.60;;;;;;22666744;26;20097;-37
2024/04/18 17:55:00;;;;;;;0.20;0.10;;;3.90;95.90;;;;;;22643417;26;20026;-38
2024/04/18 18:05:02;;;;;;;0.30;0.08;;;3.70;96.80;;;;;;22712657;26;20026;-37
2024/04/18 18:15:04;;;;;;;0.85;0.10;;;3.30;96.40;;;;;;22712759;26;20557;-38
2024/04/18 18:25:05;;;;;;;0.10;0.10;;;2.90;98.20;;;;;;22712150;26;20025;-37
2024/04/18 18:35:08;;;;;;;0.00;0.00;;;2.10;99.00;;;;;;22631892;26;20030;-38
2024/04/18 18:45:10;;;;;;;0.30;0.15;;;1.90;96.80;;;;;;22709742;26;20408;-37
2024/04/18 18:55:12;;;;;;;0.95;0.30;;;1.50;99.90;;;;;;22655553;26;20034;-37
2024/04/18 19:05:15;;;;;;;1.65;0.00;;;1.10;99.90;;;;;;22641824;26;20329;-40
2024/04/18 19:15:17;;;;;;;0.85;0.30;;;0.80;99.90;;;;;;22710050;26;20091;-38
2024/04/18 19:25:19;;;;;;;0.17;0.00;;;1.10;98.30;;;;;;22706238;26;20034;-38
2024/04/18 19:35:22;;;;;;;0.15;0.00;;;1.30;97.10;;;;;;22659773;26;20034;-37
2024/04/18 19:45:26;;;;;;;1.15;0.10;;;1.50;96.30;;;;;;22707363;26;20088;-38
2024/04/18 19:55:27;;;;;;;0.52;0.10;;;1.80;94.30;;;;;;22653982;26;20091;-38
2024/04/18 20:05:36;;;;;;;0.30;0.10;;;2.00;94.10;;;;;;22705760;26;20035;-37
2024/04/18 20:15:38;;;;;;;0.10;0.10;;;2.10;93.20;;;;;;22706082;26;20046;-38
2024/04/18 20:25:42;;;;;;;0.10;0.00;;;2.20;93.20;;;;;;22704328;26;20037;-38
2024/04/18 20:35:44;;;;;;;0.40;0.00;;;1.50;94.20;;;;;;22656462;26;20096;-37
2024/04/18 20:45:53;;;;;;;0.00;0.00;;;1.50;92.90;;;;;;22701690;26;20031;-38
2024/04/18 20:55:55;;;;;;;0.98;0.00;;;1.90;92.20;;;;;;22649592;26;20769;-37
2024/04/18 21:05:57;;;;;;;0.03;0.00;;;1.80;91.60;;;;;;22702799;26;20037;-38
2024/04/18 21:16:00;;;;;;;0.10;0.05;;;2.20;91.90;;;;;;22703086;26;20586;-42
2024/04/18 21:26:02;;;;;;;0.25;0.00;;;1.60;92.90;;;;;;22616259;26;20130;-37
2024/04/18 21:36:04;;;;;;;0.70;0.08;;;0.90;95.50;;;;;;22569986;26;20030;-38
2024/04/18 21:46:09;;;;;;;0.00;0.00;;;0.70;94.50;;;;;;22699956;26;20183;-38
2024/04/18 21:56:11;;;;;;;0.45;0.00;;;0.70;93.80;;;;;;22599781;26;20119;-37
2024/04/18 22:06:13;;;;;;;0.35;0.00;;;1.00;93.10;;;;;;22712983;26;20366;-37
2024/04/18 22:16:14;;;;;;;0.30;0.10;;;0.80;94.70;;;;;;22714540;26;20382;-38
2024/04/18 22:26:16;;;;;;;3.45;0.10;;;0.60;95.10;;;;;;22630196;26;20091;-38
2024/04/18 22:36:21;;;;;;;0.43;0.10;;;0.30;95.90;;;;;;22567203;26;20939;-37
2024/04/18 22:46:23;;;;;;;0.20;0.00;;;0.00;96.70;;;;;;22696684;26;20477;-37
2024/04/18 22:56:25;;;;;;;0.00;0.00;;;-0.60;96.60;;;;;;22629909;26;20430;-37
2024/04/18 23:06:30;;;;;;;0.25;0.00;;;-0.20;96.20;;;;;;22708357;26;20033;-37
2024/04/18 23:16:35;;;;;;;0.10;0.00;;;0.40;95.30;;;;;;22709361;26;20089;-38
2024/04/18 23:26:37;;;;;;;0.10;0.00;;;-0.10;95.90;;;;;;22635979;26;20031;-38
2024/04/18 23:36:39;;;;;;;0.22;0.10;;;-0.30;96.10;;;;;;22586465;26;20034;-37
2024/04/18 23:46:43;;;;;;;0.13;0.00;;;-0.40;96.20;;;;;;22699483;26;20482;-38
2024/04/18 23:56:45;;;;;;;0.20;0.00;;;-0.30;96.10;;;;;;22662530;26;20375;-37
